Marshall Army Air Field Fort Riley(Junction City) US
ICAO: KFRI
IATA: FRI
Category: Medium
Scheduled Services: No

Elevation: 1065 ft
TransAlt. 18000 ft.

Airport Communications:
VFR ADVSY SVC:126.2
KANSAS CITY CNTR:127.35
ASOS:118.375
CTAF:126.2
RANGE CON:40.8
OPS:40.55

KFRI Zoom In..

If you have problems with the map follow the link
https://www.worldairports.se/pages/airport.php?
ICAO=KFRI

Runways:

(A) RW 04 length 4503 ft width 100 ft
---- / hdg 44

(B) RW 22 length 4503 ft width 100 ft
---- / hdg 224

Location; KFRI
Day. 18 / Time. 21.11 Zulu
* Altimeter: 29.76
* Temperature: 02° c. 35.6°f.
* Wind from: 040° Speed 12 kn.
Dewpoint: 01° c.
Visibility: 6 Statute Miles.
Clouds: Overcast 600 ft.
Conditions: Light Rain.Conditions: Mist.

KFRI 182111Z 04012KT 6SM -RA BR OVC006 02/01 A2976 RMK AO2A SLP085


Wind From 040°
Speed 12 kn.

 
 
jpsmedia.com for Web Design worldairports.se 2019   terms of use